Time;durP1;ratioP1;P1;durP2;ratioP2;P2;SDS_P1;SDS_P2;PMS_P1;PMS_P2;Temp;Humidity;BMP_temperature;BMP_pressure;BME280_temperature;BME280_humidity;BME280_pressure;Samples;Min_cycle;Max_cycle;Signal;HPM_P1;HPM_P2
2020/12/20 00:00:39;;;;;;;9.13;8.13;;;;;;;;;;2079089;28;20180;-66
2020/12/20 00:01:42;;;;;;;11.32;8.57;;;;;;;;;;2072930;28;20196;-65
2020/12/20 00:02:50;;;;;;;8.02;7.28;;;;;;;;;;2064418;28;20180;-66
2020/12/20 00:03:50;;;;;;;10.32;8.15;;;;;;;;;;2072195;28;20204;-66
2020/12/20 00:04:50;;;;;;;10.13;7.75;;;;;;;;;;2080122;28;20176;-66
2020/12/20 00:05:51;;;;;;;8.98;8.18;;;;;;;;;;2081600;28;20199;-68
2020/12/20 00:06:51;;;;;;;9.23;8.35;;;;;;;;;;2079117;28;20528;-66
2020/12/20 00:07:52;;;;;;;8.85;8.05;;;;;;;;;;2072035;28;20210;-65
2020/12/20 00:08:52;;;;;;;9.13;8.20;;;;;;;;;;2072588;28;20181;-67
2020/12/20 00:09:53;;;;;;;9.40;8.40;;;;;;;;;;2072763;28;20185;-66
2020/12/20 00:10:53;;;;;;;8.85;8.05;;;;;;;;;;2062487;28;20193;-66
2020/12/20 00:11:53;;;;;;;8.55;7.25;;;;;;;;;;2072438;28;20200;-65
2020/12/20 00:12:55;;;;;;;8.40;7.70;;;;;;;;;;2078013;28;20229;-66
2020/12/20 00:13:55;;;;;;;8.50;7.50;;;;;;;;;;2080564;28;20177;-66
2020/12/20 00:14:55;;;;;;;10.15;8.43;;;;;;;;;;2079661;28;20648;-64
2020/12/20 00:15:55;;;;;;;9.02;8.13;;;;;;;;;;2077860;28;20164;-67
2020/12/20 00:17:06;;;;;;;9.40;8.45;;;;;;;;;;2081258;28;20612;-66
2020/12/20 00:18:06;;;;;;;9.05;8.15;;;;;;;;;;2079661;28;20203;-66
2020/12/20 00:19:06;;;;;;;9.38;8.45;;;;;;;;;;2077601;28;20228;-66
2020/12/20 00:20:07;;;;;;;8.18;7.22;;;;;;;;;;2082818;28;20176;-67
2020/12/20 00:21:08;;;;;;;9.10;8.20;;;;;;;;;;2080003;28;20227;-68
2020/12/20 00:22:09;;;;;;;9.25;8.35;;;;;;;;;;2079415;28;20208;-66
2020/12/20 00:23:09;;;;;;;11.50;9.20;;;;;;;;;;2077972;28;20207;-66
2020/12/20 00:24:10;;;;;;;8.70;7.75;;;;;;;;;;2077647;28;20164;-66
2020/12/20 00:25:11;;;;;;;8.50;7.70;;;;;;;;;;2079577;28;20184;-66
2020/12/20 00:26:11;;;;;;;9.43;7.65;;;;;;;;;;2079194;28;20579;-66
2020/12/20 00:27:11;;;;;;;8.73;7.85;;;;;;;;;;2077653;28;20177;-67
2020/12/20 00:28:12;;;;;;;9.20;8.32;;;;;;;;;;2068922;28;20185;-66
2020/12/20 00:29:12;;;;;;;9.40;8.50;;;;;;;;;;2072585;28;20618;-65
2020/12/20 00:30:12;;;;;;;9.95;8.52;;;;;;;;;;2079029;28;20161;-66
2020/12/20 00:31:16;;;;;;;9.13;8.15;;;;;;;;;;2073915;28;20680;-66
2020/12/20 00:32:16;;;;;;;9.23;8.43;;;;;;;;;;2074395;28;20255;-66
2020/12/20 00:33:16;;;;;;;9.55;8.40;;;;;;;;;;2073691;28;20788;-66
2020/12/20 00:34:17;;;;;;;9.00;8.10;;;;;;;;;;2073878;28;20252;-65
2020/12/20 00:35:17;;;;;;;10.68;9.57;;;;;;;;;;2082216;28;20179;-65
2020/12/20 00:36:17;;;;;;;9.95;8.95;;;;;;;;;;2081003;28;20172;-66
2020/12/20 00:37:18;;;;;;;11.30;9.18;;;;;;;;;;2080344;28;20192;-66
2020/12/20 00:38:18;;;;;;;9.15;8.23;;;;;;;;;;2077438;28;20203;-67
2020/12/20 00:39:19;;;;;;;9.82;8.82;;;;;;;;;;2081494;28;20223;-66
2020/12/20 00:40:19;;;;;;;8.98;8.07;;;;;;;;;;2081477;28;20255;-66
2020/12/20 00:41:19;;;;;;;10.98;9.02;;;;;;;;;;2078522;28;20517;-66
2020/12/20 00:42:20;;;;;;;10.83;9.70;;;;;;;;;;2094955;22;20210;-57
2020/12/20 00:43:20;;;;;;;10.00;9.00;;;;;;;;;;2077933;28;20515;-57
2020/12/20 00:44:22;;;;;;;8.70;7.90;;;;;;;;;;2079861;28;20183;-60
2020/12/20 00:45:22;;;;;;;9.60;8.70;;;;;;;;;;2073776;28;20185;-60
2020/12/20 00:46:22;;;;;;;10.27;8.45;;;;;;;;;;2071890;28;20200;-57
2020/12/20 00:47:23;;;;;;;9.77;8.77;;;;;;;;;;2072506;28;20684;-57
2020/12/20 00:48:23;;;;;;;8.88;7.97;;;;;;;;;;2072305;28;20169;-59
2020/12/20 00:49:24;;;;;;;10.73;9.63;;;;;;;;;;2073500;28;20168;-60
2020/12/20 00:50:25;;;;;;;9.32;8.48;;;;;;;;;;2080296;28;20367;-60
2020/12/20 00:51:25;;;;;;;11.05;8.25;;;;;;;;;;2074476;28;20851;-60
2020/12/20 00:52:26;;;;;;;9.80;8.80;;;;;;;;;;2074926;28;20214;-58
2020/12/20 00:53:30;;;;;;;9.70;8.73;;;;;;;;;;2072386;28;20254;-59
2020/12/20 00:54:30;;;;;;;11.05;9.52;;;;;;;;;;2065286;28;20216;-56
2020/12/20 00:55:31;;;;;;;8.65;7.90;;;;;;;;;;2065232;28;20264;-60
2020/12/20 00:56:32;;;;;;;10.35;8.88;;;;;;;;;;2062540;28;20181;-58
2020/12/20 00:57:33;;;;;;;10.45;8.88;;;;;;;;;;2063842;28;20711;-59
2020/12/20 00:58:34;;;;;;;10.80;8.80;;;;;;;;;;2071177;28;20182;-59
2020/12/20 00:59:34;;;;;;;9.85;8.82;;;;;;;;;;2069949;28;20194;-60
2020/12/20 01:00:34;;;;;;;9.45;8.35;;;;;;;;;;2067368;28;20192;-59
2020/12/20 01:01:35;;;;;;;9.50;8.48;;;;;;;;;;2064517;28;20208;-58
2020/12/20 01:02:35;;;;;;;11.10;8.82;;;;;;;;;;2065790;28;20627;-60
2020/12/20 01:03:37;;;;;;;9.23;8.32;;;;;;;;;;2065404;28;20305;-58
2020/12/20 01:04:37;;;;;;;8.52;7.50;;;;;;;;;;2065894;28;20525;-59
2020/12/20 01:05:37;;;;;;;9.43;8.52;;;;;;;;;;2070257;28;20188;-59
2020/12/20 01:06:38;;;;;;;10.60;8.30;;;;;;;;;;2073807;28;20625;-57
2020/12/20 01:07:53;;;;;;;8.95;8.13;;;;;;;;;;2070574;28;20176;-59
2020/12/20 01:08:53;;;;;;;9.45;8.55;;;;;;;;;;2066230;28;20173;-56
2020/12/20 01:09:54;;;;;;;9.40;8.50;;;;;;;;;;2064829;28;20176;-60
2020/12/20 01:10:57;;;;;;;9.52;8.63;;;;;;;;;;2065090;28;20261;-54
2020/12/20 01:11:59;;;;;;;11.35;9.10;;;;;;;;;;2065908;28;20195;-57
2020/12/20 01:13:18;;;;;;;9.57;8.57;;;;;;;;;;2065408;28;20195;-60
2020/12/20 01:14:18;;;;;;;8.48;7.78;;;;;;;;;;2065076;28;20174;-55
2020/12/20 01:15:29;;;;;;;9.13;8.32;;;;;;;;;;2065199;28;20176;-56
2020/12/20 01:16:30;;;;;;;8.82;7.82;;;;;;;;;;2065439;28;20614;-56
2020/12/20 01:17:30;;;;;;;9.68;8.60;;;;;;;;;;2073117;28;20173;-58
2020/12/20 01:18:34;;;;;;;9.65;8.73;;;;;;;;;;2064872;28;20650;-59
2020/12/20 01:19:34;;;;;;;10.77;8.65;;;;;;;;;;2065408;28;20169;-60
2020/12/20 01:20:34;;;;;;;9.63;8.20;;;;;;;;;;2063059;28;20190;-56
2020/12/20 01:21:36;;;;;;;10.52;8.60;;;;;;;;;;2062628;28;20174;-58
2020/12/20 01:22:36;;;;;;;9.52;8.63;;;;;;;;;;2067744;28;20249;-58
2020/12/20 01:23:38;;;;;;;10.55;8.80;;;;;;;;;;2063540;28;20185;-60
2020/12/20 01:24:38;;;;;;;8.32;7.45;;;;;;;;;;2071962;28;20172;-58
2020/12/20 01:25:46;;;;;;;9.30;8.35;;;;;;;;;;2061701;28;20273;-59
2020/12/20 01:26:52;;;;;;;10.57;8.73;;;;;;;;;;2067589;28;20279;-58
2020/12/20 01:27:53;;;;;;;9.07;8.18;;;;;;;;;;2071731;28;20303;-57
2020/12/20 01:29:00;;;;;;;11.20;8.32;;;;;;;;;;2063749;28;20193;-59
2020/12/20 01:30:01;;;;;;;14.98;12.45;;;;;;;;;;2064389;28;20748;-58
2020/12/20 01:31:03;;;;;;;9.80;8.88;;;;;;;;;;2064133;28;20201;-58
2020/12/20 01:32:17;;;;;;;10.13;9.07;;;;;;;;;;2067032;28;20177;-57
2020/12/20 01:33:20;;;;;;;9.07;8.23;;;;;;;;;;2073545;28;20546;-59
2020/12/20 01:34:37;;;;;;;9.15;8.25;;;;;;;;;;2072658;28;20187;-59
2020/12/20 01:35:37;;;;;;;9.13;8.23;;;;;;;;;;2074237;28;20185;-58
2020/12/20 01:36:38;;;;;;;9.48;8.50;;;;;;;;;;2075029;28;20264;-60
2020/12/20 01:37:38;;;;;;;8.70;7.93;;;;;;;;;;2074376;28;20172;-60
2020/12/20 01:38:41;;;;;;;8.95;8.25;;;;;;;;;;2073241;28;20564;-55
2020/12/20 01:39:42;;;;;;;9.10;8.20;;;;;;;;;;2065072;28;20292;-55
2020/12/20 01:40:49;;;;;;;11.43;10.23;;;;;;;;;;2072762;28;20293;-60
2020/12/20 01:41:53;;;;;;;10.15;9.07;;;;;;;;;;2074644;28;20284;-61
2020/12/20 01:43:00;;;;;;;9.98;8.80;;;;;;;;;;2073160;28;20244;-58
2020/12/20 01:44:05;;;;;;;9.88;8.45;;;;;;;;;;2066803;28;20630;-55
2020/12/20 01:45:10;;;;;;;9.88;8.88;;;;;;;;;;2072325;28;20723;-60
2020/12/20 01:46:16;;;;;;;11.30;10.15;;;;;;;;;;2075144;28;20169;-59
2020/12/20 01:47:16;;;;;;;11.25;10.15;;;;;;;;;;2064436;28;20264;-58
2020/12/20 01:48:17;;;;;;;11.73;9.90;;;;;;;;;;2064762;28;20674;-60
2020/12/20 01:49:19;;;;;;;10.40;9.40;;;;;;;;;;2064774;28;20642;-59
2020/12/20 01:50:20;;;;;;;9.27;8.45;;;;;;;;;;2067797;28;20177;-60
2020/12/20 01:51:21;;;;;;;9.63;8.63;;;;;;;;;;2066291;28;20166;-59
2020/12/20 01:52:32;;;;;;;10.02;8.63;;;;;;;;;;2070914;28;20296;-57
2020/12/20 01:53:33;;;;;;;9.63;8.73;;;;;;;;;;2064733;28;20563;-59
2020/12/20 01:54:35;;;;;;;9.70;8.73;;;;;;;;;;2066936;28;20174;-59
2020/12/20 01:55:54;;;;;;;10.18;8.98;;;;;;;;;;2075777;28;20176;-60
2020/12/20 01:56:54;;;;;;;10.32;9.35;;;;;;;;;;2063612;28;20174;-56
2020/12/20 01:58:04;;;;;;;9.90;8.98;;;;;;;;;;2064853;28;20166;-59
2020/12/20 01:59:15;;;;;;;9.27;8.38;;;;;;;;;;2063148;28;20264;-60
2020/12/20 02:00:23;;;;;;;9.50;8.55;;;;;;;;;;2078883;28;20223;-60
2020/12/20 02:01:52;;;;;;;9.18;8.45;;;;;;;;;;2078623;28;20196;-61
2020/12/20 02:03:11;;;;;;;9.60;8.70;;;;;;;;;;2069335;28;20196;-59
2020/12/20 02:04:14;;;;;;;9.23;8.23;;;;;;;;;;2064430;28;20251;-58
2020/12/20 02:05:19;;;;;;;9.00;8.10;;;;;;;;;;2073934;28;20173;-60
2020/12/20 02:06:23;;;;;;;11.13;9.70;;;;;;;;;;2073012;28;20180;-58
2020/12/20 02:07:29;;;;;;;9.25;8.38;;;;;;;;;;2070396;28;20165;-61
2020/12/20 02:08:32;;;;;;;9.50;8.60;;;;;;;;;;2066836;28;20174;-58
2020/12/20 02:09:52;;;;;;;9.32;8.43;;;;;;;;;;2055749;28;20305;-56
2020/12/20 02:11:13;;;;;;;9.20;8.30;;;;;;;;;;2048273;29;20206;-60
2020/12/20 02:12:17;;;;;;;9.60;8.68;;;;;;;;;;2041774;29;20183;-61
2020/12/20 02:13:29;;;;;;;11.38;10.27;;;;;;;;;;2042764;29;20673;-60
2020/12/20 02:14:30;;;;;;;9.38;8.48;;;;;;;;;;2040324;29;20235;-60
2020/12/20 02:15:35;;;;;;;9.63;8.70;;;;;;;;;;2039444;28;20195;-60
2020/12/20 02:16:36;;;;;;;9.50;8.55;;;;;;;;;;2048957;28;20630;-60
2020/12/20 02:17:37;;;;;;;10.55;8.90;;;;;;;;;;2055571;28;20178;-61
2020/12/20 02:18:37;;;;;;;10.25;9.23;;;;;;;;;;2040739;28;20172;-60
2020/12/20 02:19:38;;;;;;;11.25;9.20;;;;;;;;;;2053584;28;20226;-62
2020/12/20 02:20:53;;;;;;;9.50;8.68;;;;;;;;;;2054008;28;20177;-60
2020/12/20 02:21:53;;;;;;;9.38;8.48;;;;;;;;;;2056195;28;20190;-60
2020/12/20 02:22:58;;;;;;;10.15;9.20;;;;;;;;;;2043544;28;20202;-57
2020/12/20 02:24:03;;;;;;;9.93;8.88;;;;;;;;;;2040733;29;20171;-60
2020/12/20 02:25:18;;;;;;;12.55;8.90;;;;;;;;;;2042135;29;20296;-60
2020/12/20 02:26:29;;;;;;;9.93;9.02;;;;;;;;;;2040964;29;20259;-58
2020/12/20 02:27:29;;;;;;;12.93;8.98;;;;;;;;;;2049895;28;20202;-60
2020/12/20 02:28:30;;;;;;;9.85;8.95;;;;;;;;;;2048472;28;20175;-60
2020/12/20 02:29:43;;;;;;;10.30;9.30;;;;;;;;;;2048185;28;20195;-60
2020/12/20 02:30:44;;;;;;;10.10;8.63;;;;;;;;;;2050492;28;20285;-57
2020/12/20 02:31:53;;;;;;;11.18;8.77;;;;;;;;;;2040966;29;20226;-60
2020/12/20 02:32:53;;;;;;;10.60;9.05;;;;;;;;;;2044193;29;20660;-59
2020/12/20 02:33:56;;;;;;;10.52;8.82;;;;;;;;;;2050146;28;20244;-56
2020/12/20 02:34:56;;;;;;;9.60;8.60;;;;;;;;;;2055750;28;20746;-60
2020/12/20 02:35:57;;;;;;;9.88;8.95;;;;;;;;;;2051069;28;20229;-57
2020/12/20 02:36:57;;;;;;;9.88;8.88;;;;;;;;;;2043380;28;20179;-59
2020/12/20 02:38:08;;;;;;;11.57;9.48;;;;;;;;;;2048534;28;20175;-61
2020/12/20 02:39:10;;;;;;;9.63;8.68;;;;;;;;;;2040126;29;20168;-58
2020/12/20 02:40:38;;;;;;;9.60;8.70;;;;;;;;;;2052244;28;20181;-58
2020/12/20 02:41:41;;;;;;;9.25;8.43;;;;;;;;;;2058443;28;20189;-59
2020/12/20 02:42:43;;;;;;;10.02;9.02;;;;;;;;;;2064366;28;20317;-56
2020/12/20 02:43:43;;;;;;;10.25;9.25;;;;;;;;;;2062805;28;20529;-59
2020/12/20 02:44:48;;;;;;;10.82;9.32;;;;;;;;;;2064999;28;20185;-60
2020/12/20 02:45:49;;;;;;;10.38;8.98;;;;;;;;;;2064591;28;20193;-61
2020/12/20 02:46:50;;;;;;;10.45;9.20;;;;;;;;;;2062603;28;21317;-56
2020/12/20 02:47:57;;;;;;;10.38;9.48;;;;;;;;;;2067103;28;20254;-58
2020/12/20 02:48:58;;;;;;;10.73;9.73;;;;;;;;;;2064623;28;20184;-58
2020/12/20 02:49:58;;;;;;;10.65;8.68;;;;;;;;;;2067061;28;20162;-57
2020/12/20 02:51:09;;;;;;;9.85;8.88;;;;;;;;;;2071984;28;20200;-58
2020/12/20 02:52:12;;;;;;;9.48;8.57;;;;;;;;;;2071059;28;20621;-57
2020/12/20 02:53:13;;;;;;;11.52;8.45;;;;;;;;;;2056146;28;20261;-58
2020/12/20 02:54:14;;;;;;;10.40;9.50;;;;;;;;;;2069685;28;20264;-57
2020/12/20 02:55:16;;;;;;;9.25;8.43;;;;;;;;;;2064371;28;20170;-61
2020/12/20 02:56:23;;;;;;;9.63;8.50;;;;;;;;;;2065421;28;20158;-59
2020/12/20 02:57:26;;;;;;;10.50;9.40;;;;;;;;;;2063739;28;20180;-59
2020/12/20 02:58:40;;;;;;;10.13;9.13;;;;;;;;;;2058358;28;20174;-60
2020/12/20 02:59:54;;;;;;;11.07;8.68;;;;;;;;;;2061853;28;20637;-58
2020/12/20 03:00:54;;;;;;;9.85;8.90;;;;;;;;;;2064191;28;20193;-57
2020/12/20 03:01:56;;;;;;;10.23;8.93;;;;;;;;;;2061815;28;20690;-55
2020/12/20 03:02:56;;;;;;;9.35;8.55;;;;;;;;;;2064066;28;20194;-57
2020/12/20 03:03:56;;;;;;;10.88;8.95;;;;;;;;;;2071244;28;20180;-56
2020/12/20 03:04:57;;;;;;;9.75;8.82;;;;;;;;;;2078890;28;20195;-56
2020/12/20 03:05:57;;;;;;;10.25;8.75;;;;;;;;;;2081136;28;20160;-55
2020/12/20 03:06:57;;;;;;;10.75;9.55;;;;;;;;;;2079287;28;20213;-58
2020/12/20 03:07:58;;;;;;;10.23;9.20;;;;;;;;;;2073312;28;20207;-60
2020/12/20 03:09:00;;;;;;;10.25;9.25;;;;;;;;;;2070757;28;20180;-59
2020/12/20 03:10:00;;;;;;;10.50;9.50;;;;;;;;;;2064121;28;20308;-58
2020/12/20 03:11:01;;;;;;;10.02;8.95;;;;;;;;;;2071896;28;20203;-59
2020/12/20 03:12:01;;;;;;;10.82;9.73;;;;;;;;;;2073034;28;20696;-58
2020/12/20 03:13:02;;;;;;;10.65;9.60;;;;;;;;;;2072332;28;20189;-57
2020/12/20 03:14:05;;;;;;;10.43;9.40;;;;;;;;;;2062588;28;20173;-57
2020/12/20 03:15:08;;;;;;;9.82;9.02;;;;;;;;;;2064866;28;20165;-58
2020/12/20 03:16:08;;;;;;;10.65;9.43;;;;;;;;;;2073545;28;20169;-55
2020/12/20 03:17:11;;;;;;;12.95;9.55;;;;;;;;;;2071546;28;20255;-59
2020/12/20 03:18:11;;;;;;;11.18;9.98;;;;;;;;;;2066136;28;20173;-59
2020/12/20 03:19:12;;;;;;;10.02;9.13;;;;;;;;;;2058902;28;20190;-59
2020/12/20 03:20:12;;;;;;;11.77;9.43;;;;;;;;;;2056351;28;20584;-56
2020/12/20 03:21:13;;;;;;;11.57;10.05;;;;;;;;;;2059896;28;20166;-54
2020/12/20 03:22:20;;;;;;;11.32;9.40;;;;;;;;;;2062499;28;20181;-58
2020/12/20 03:23:44;;;;;;;11.52;10.35;;;;;;;;;;2070206;28;20184;-60
2020/12/20 03:25:10;;;;;;;10.25;9.25;;;;;;;;;;2052075;28;20662;-58
2020/12/20 03:26:29;;;;;;;10.93;9.85;;;;;;;;;;2077564;28;20157;-59
2020/12/20 03:27:47;;;;;;;11.75;10.63;;;;;;;;;;2066529;28;20172;-57
2020/12/20 03:29:10;;;;;;;11.75;10.73;;;;;;;;;;2067140;28;20180;-59
2020/12/20 03:30:34;;;;;;;11.00;9.93;;;;;;;;;;2072120;28;20188;-60
2020/12/20 03:31:46;;;;;;;12.77;11.48;;;;;;;;;;2065091;28;20185;-57
2020/12/20 03:33:03;;;;;;;11.38;10.18;;;;;;;;;;2064300;28;20188;-60
2020/12/20 03:34:24;;;;;;;11.70;10.50;;;;;;;;;;2072562;28;20211;-60
2020/12/20 03:35:45;;;;;;;10.98;9.88;;;;;;;;;;2072369;28;20729;-60
2020/12/20 03:36:46;;;;;;;11.35;10.18;;;;;;;;;;2061712;28;20178;-61
2020/12/20 03:37:50;;;;;;;11.38;9.70;;;;;;;;;;2064659;28;20195;-62
2020/12/20 03:38:52;;;;;;;11.30;10.20;;;;;;;;;;2064214;28;20255;-60
2020/12/20 03:39:52;;;;;;;11.15;9.88;;;;;;;;;;2072397;28;20234;-60
2020/12/20 03:40:53;;;;;;;12.55;11.15;;;;;;;;;;2063757;28;20181;-60
2020/12/20 03:41:53;;;;;;;11.30;10.20;;;;;;;;;;2068735;28;20170;-58
2020/12/20 03:42:56;;;;;;;10.88;9.75;;;;;;;;;;2071793;28;20213;-58
2020/12/20 03:43:59;;;;;;;11.20;10.07;;;;;;;;;;2062308;28;20268;-58
2020/12/20 03:45:00;;;;;;;11.65;10.45;;;;;;;;;;2064136;28;20177;-60
2020/12/20 03:46:00;;;;;;;14.40;10.55;;;;;;;;;;2067639;28;20225;-60
2020/12/20 03:47:12;;;;;;;13.13;9.77;;;;;;;;;;2070431;28;20542;-58
2020/12/20 03:48:13;;;;;;;12.18;10.63;;;;;;;;;;2069773;28;20708;-59
2020/12/20 03:49:14;;;;;;;12.27;10.88;;;;;;;;;;2068370;28;20204;-58
2020/12/20 03:50:15;;;;;;;12.73;11.30;;;;;;;;;;2063772;28;20213;-57
2020/12/20 03:51:15;;;;;;;12.20;10.75;;;;;;;;;;2073245;28;20164;-59
2020/12/20 03:52:20;;;;;;;10.23;9.27;;;;;;;;;;2079852;28;20644;-59
2020/12/20 03:53:31;;;;;;;11.55;10.32;;;;;;;;;;2071009;28;20173;-60
2020/12/20 03:54:43;;;;;;;11.50;10.33;;;;;;;;;;2060995;28;20213;-58
2020/12/20 03:55:43;;;;;;;13.43;9.60;;;;;;;;;;2065055;28;20177;-58
2020/12/20 03:56:44;;;;;;;11.30;10.23;;;;;;;;;;2065573;28;20161;-55
2020/12/20 03:57:50;;;;;;;10.65;9.55;;;;;;;;;;2072953;28;20165;-58
2020/12/20 03:58:54;;;;;;;11.00;9.90;;;;;;;;;;2074300;28;20180;-60
2020/12/20 03:59:59;;;;;;;11.32;10.13;;;;;;;;;;2065415;28;20268;-59
2020/12/20 04:00:59;;;;;;;11.65;9.80;;;;;;;;;;2074362;28;20320;-59
2020/12/20 04:02:05;;;;;;;11.43;10.32;;;;;;;;;;2073482;28;20181;-56
2020/12/20 04:03:05;;;;;;;12.63;10.75;;;;;;;;;;2063973;28;20199;-57
2020/12/20 04:04:10;;;;;;;10.70;9.68;;;;;;;;;;2069962;28;20185;-58
2020/12/20 04:05:14;;;;;;;10.27;9.27;;;;;;;;;;2062632;28;20180;-59
2020/12/20 04:06:17;;;;;;;11.18;10.07;;;;;;;;;;2062177;28;20178;-58
2020/12/20 04:07:17;;;;;;;10.93;9.88;;;;;;;;;;2063639;28;20522;-56
2020/12/20 04:08:21;;;;;;;10.88;9.60;;;;;;;;;;2065670;28;20185;-57
2020/12/20 04:09:35;;;;;;;11.32;10.23;;;;;;;;;;2067229;28;20196;-59
2020/12/20 04:10:48;;;;;;;12.82;10.60;;;;;;;;;;2066906;28;20644;-60
2020/12/20 04:11:49;;;;;;;10.95;9.85;;;;;;;;;;2067072;28;20174;-57
2020/12/20 04:12:51;;;;;;;11.52;10.02;;;;;;;;;;2064531;28;20198;-59
2020/12/20 04:13:51;;;;;;;10.82;9.70;;;;;;;;;;2060633;28;20324;-60
2020/12/20 04:14:52;;;;;;;11.80;10.55;;;;;;;;;;2073676;28;20191;-60
2020/12/20 04:15:53;;;;;;;10.48;9.43;;;;;;;;;;2065791;28;20236;-60
2020/12/20 04:16:53;;;;;;;11.38;10.18;;;;;;;;;;2066851;28;20243;-58
2020/12/20 04:17:56;;;;;;;10.98;9.60;;;;;;;;;;2064220;28;20685;-62
2020/12/20 04:18:59;;;;;;;11.95;9.73;;;;;;;;;;2065978;28;20170;-59
2020/12/20 04:19:59;;;;;;;11.23;10.13;;;;;;;;;;2063964;28;20650;-57
2020/12/20 04:21:18;;;;;;;10.48;9.45;;;;;;;;;;2068341;28;20176;-59
2020/12/20 04:22:19;;;;;;;10.25;9.25;;;;;;;;;;2065522;28;20177;-58
2020/12/20 04:23:46;;;;;;;10.57;9.57;;;;;;;;;;2065954;28;20183;-56
2020/12/20 04:24:55;;;;;;;10.32;9.35;;;;;;;;;;2058860;28;20189;-60
2020/12/20 04:26:00;;;;;;;11.48;9.95;;;;;;;;;;2067715;28;20186;-60
2020/12/20 04:27:12;;;;;;;10.75;9.07;;;;;;;;;;2073464;28;20622;-59
2020/12/20 04:28:23;;;;;;;10.32;9.43;;;;;;;;;;2068642;28;20165;-60
2020/12/20 04:29:28;;;;;;;11.82;10.40;;;;;;;;;;2060864;28;20189;-63
2020/12/20 04:30:32;;;;;;;11.90;10.55;;;;;;;;;;2065057;28;20536;-62
2020/12/20 04:31:39;;;;;;;12.88;10.27;;;;;;;;;;2071896;28;20173;-61
2020/12/20 04:32:39;;;;;;;11.05;9.95;;;;;;;;;;2078120;28;20208;-56
2020/12/20 04:33:40;;;;;;;11.23;10.13;;;;;;;;;;2086250;28;20199;-58
2020/12/20 04:34:47;;;;;;;13.43;10.00;;;;;;;;;;2070459;28;20228;-59
2020/12/20 04:35:47;;;;;;;11.90;9.50;;;;;;;;;;2061661;28;20273;-56
2020/12/20 04:36:49;;;;;;;10.30;9.27;;;;;;;;;;2065797;28;20234;-58
2020/12/20 04:38:13;;;;;;;10.68;9.38;;;;;;;;;;2068355;28;20173;-58
2020/12/20 04:39:16;;;;;;;10.73;9.73;;;;;;;;;;2064181;28;20173;-58
2020/12/20 04:40:16;;;;;;;10.20;9.13;;;;;;;;;;2065684;28;20220;-58
2020/12/20 04:41:22;;;;;;;11.35;9.98;;;;;;;;;;2064995;28;20188;-60
2020/12/20 04:42:27;;;;;;;9.82;8.77;;;;;;;;;;2063947;28;20269;-59
2020/12/20 04:43:27;;;;;;;12.65;10.75;;;;;;;;;;2066322;28;20260;-57
2020/12/20 04:44:29;;;;;;;12.40;9.35;;;;;;;;;;2065383;28;20204;-57
2020/12/20 04:45:36;;;;;;;10.48;9.48;;;;;;;;;;2065373;28;20271;-59
2020/12/20 04:46:43;;;;;;;10.70;9.60;;;;;;;;;;2063759;28;20724;-59
2020/12/20 04:47:53;;;;;;;10.75;9.30;;;;;;;;;;2066245;28;20188;-59
2020/12/20 04:48:58;;;;;;;11.85;10.18;;;;;;;;;;2066069;28;20185;-58
2020/12/20 04:49:59;;;;;;;11.02;9.93;;;;;;;;;;2063510;28;20182;-59
2020/12/20 04:51:07;;;;;;;10.90;9.65;;;;;;;;;;2065252;28;20209;-58
2020/12/20 04:52:07;;;;;;;10.68;9.23;;;;;;;;;;2065319;28;20633;-60
2020/12/20 04:53:11;;;;;;;10.73;9.63;;;;;;;;;;2054129;28;20589;-56
2020/12/20 04:54:23;;;;;;;12.70;10.02;;;;;;;;;;2060131;28;20593;-58
2020/12/20 04:55:24;;;;;;;11.50;9.50;;;;;;;;;;2072510;28;20255;-59
2020/12/20 04:56:44;;;;;;;11.43;8.95;;;;;;;;;;2069694;28;20269;-59
2020/12/20 04:57:57;;;;;;;10.02;9.07;;;;;;;;;;2072727;28;20181;-59
2020/12/20 04:59:01;;;;;;;10.60;9.52;;;;;;;;;;2065038;28;20651;-58
2020/12/20 05:00:06;;;;;;;10.45;9.10;;;;;;;;;;2063428;28;20196;-59
2020/12/20 05:01:08;;;;;;;9.60;8.80;;;;;;;;;;2063308;28;20178;-58
2020/12/20 05:02:11;;;;;;;10.02;9.13;;;;;;;;;;2064668;28;20260;-57
2020/12/20 05:03:11;;;;;;;11.90;9.37;;;;;;;;;;2066001;28;20177;-60
2020/12/20 05:04:15;;;;;;;10.10;9.10;;;;;;;;;;2068716;28;20192;-58
2020/12/20 05:05:15;;;;;;;10.88;9.05;;;;;;;;;;2063773;28;20178;-57
2020/12/20 05:06:17;;;;;;;10.40;9.40;;;;;;;;;;2069942;28;20181;-56
2020/12/20 05:07:19;;;;;;;10.90;9.88;;;;;;;;;;2072895;28;20173;-60
2020/12/20 05:08:27;;;;;;;11.48;10.38;;;;;;;;;;2069849;28;20200;-55
2020/12/20 05:09:28;;;;;;;9.77;8.88;;;;;;;;;;2065082;28;20186;-57
2020/12/20 05:10:38;;;;;;;10.05;9.05;;;;;;;;;;2065908;28;20170;-59
2020/12/20 05:11:39;;;;;;;11.13;9.75;;;;;;;;;;2070142;28;20259;-57
2020/12/20 05:12:41;;;;;;;10.90;9.60;;;;;;;;;;2061923;28;20205;-52
2020/12/20 05:13:49;;;;;;;10.95;9.88;;;;;;;;;;2073141;28;20176;-57
2020/12/20 05:14:56;;;;;;;9.50;8.60;;;;;;;;;;2065268;28;20192;-55
2020/12/20 05:15:59;;;;;;;9.75;8.85;;;;;;;;;;2068460;28;20170;-53
2020/12/20 05:17:15;;;;;;;10.43;9.38;;;;;;;;;;2065241;28;20181;-59
2020/12/20 05:18:17;;;;;;;9.85;8.82;;;;;;;;;;2068375;28;20174;-58
2020/12/20 05:19:31;;;;;;;10.40;9.40;;;;;;;;;;2063275;28;20260;-59
2020/12/20 05:20:36;;;;;;;10.95;9.13;;;;;;;;;;2064520;28;20169;-59
2020/12/20 05:21:37;;;;;;;15.30;9.60;;;;;;;;;;2065127;28;20178;-59
2020/12/20 05:22:38;;;;;;;10.15;9.15;;;;;;;;;;2064848;28;20305;-56
2020/12/20 05:23:43;;;;;;;10.75;9.57;;;;;;;;;;2067965;28;20261;-57
2020/12/20 05:25:14;;;;;;;10.60;9.50;;;;;;;;;;2073399;28;20191;-58
2020/12/20 05:26:14;;;;;;;10.55;9.55;;;;;;;;;;2063053;28;20162;-57
2020/12/20 05:27:19;;;;;;;11.45;10.07;;;;;;;;;;2063630;28;20639;-58
2020/12/20 05:28:21;;;;;;;12.35;10.23;;;;;;;;;;2073305;28;20653;-59
2020/12/20 05:29:29;;;;;;;12.48;9.90;;;;;;;;;;2065563;28;20682;-59
2020/12/20 05:30:35;;;;;;;10.55;9.45;;;;;;;;;;2066370;28;20181;-54
2020/12/20 05:31:58;;;;;;;9.57;8.68;;;;;;;;;;2075353;28;20184;-57
2020/12/20 05:33:29;;;;;;;11.30;10.15;;;;;;;;;;2072285;28;20164;-57
2020/12/20 05:34:58;;;;;;;9.88;8.88;;;;;;;;;;2072775;28;20189;-59
2020/12/20 05:36:02;;;;;;;12.05;9.77;;;;;;;;;;2063303;28;20165;-60
2020/12/20 05:37:09;;;;;;;11.43;10.20;;;;;;;;;;2057749;28;20667;-59
2020/12/20 05:38:23;;;;;;;11.32;9.80;;;;;;;;;;2065945;28;20181;-56
2020/12/20 05:39:24;;;;;;;11.40;10.30;;;;;;;;;;2067862;28;20174;-58
2020/12/20 05:40:35;;;;;;;10.82;9.73;;;;;;;;;;2066015;28;20381;-56
2020/12/20 05:41:36;;;;;;;12.15;9.68;;;;;;;;;;2056573;28;20762;-58
2020/12/20 05:42:36;;;;;;;14.57;10.07;;;;;;;;;;2053889;28;20218;-59
2020/12/20 05:43:38;;;;;;;11.90;10.10;;;;;;;;;;2062815;28;20706;-58
2020/12/20 05:44:39;;;;;;;13.63;10.80;;;;;;;;;;2064986;28;20170;-58
2020/12/20 05:45:46;;;;;;;11.60;10.40;;;;;;;;;;2060532;28;20216;-58
2020/12/20 05:46:53;;;;;;;11.82;10.70;;;;;;;;;;2063953;28;20170;-61
2020/12/20 05:47:56;;;;;;;11.02;9.93;;;;;;;;;;2066079;28;20177;-59
2020/12/20 05:49:11;;;;;;;12.35;10.05;;;;;;;;;;2065734;28;20775;-62
2020/12/20 05:50:13;;;;;;;10.93;9.82;;;;;;;;;;2069424;28;20555;-61
2020/12/20 05:51:13;;;;;;;11.77;10.50;;;;;;;;;;2069865;28;20200;-58
2020/12/20 05:52:16;;;;;;;10.98;9.88;;;;;;;;;;2065004;28;20182;-59
2020/12/20 05:53:21;;;;;;;12.00;10.18;;;;;;;;;;2069412;28;20169;-58
2020/12/20 05:54:21;;;;;;;10.85;9.82;;;;;;;;;;2078230;28;20177;-57
2020/12/20 05:55:32;;;;;;;12.70;10.80;;;;;;;;;;2071236;28;20181;-60
2020/12/20 05:56:33;;;;;;;12.45;10.18;;;;;;;;;;2062531;28;20265;-60
2020/12/20 05:57:33;;;;;;;12.38;11.07;;;;;;;;;;2071871;28;20541;-59
2020/12/20 05:58:34;;;;;;;11.73;10.50;;;;;;;;;;2079616;28;20215;-58
2020/12/20 05:59:34;;;;;;;11.35;10.25;;;;;;;;;;2081176;28;20196;-56
2020/12/20 06:00:35;;;;;;;11.50;10.40;;;;;;;;;;2072881;28;20220;-58
2020/12/20 06:01:35;;;;;;;10.93;9.80;;;;;;;;;;2072196;28;20650;-60
2020/12/20 06:02:36;;;;;;;10.98;9.88;;;;;;;;;;2078236;28;20217;-58
2020/12/20 06:03:36;;;;;;;11.85;10.70;;;;;;;;;;2081223;28;20184;-57
2020/12/20 06:04:37;;;;;;;11.77;10.57;;;;;;;;;;2073309;28;20177;-60
2020/12/20 06:05:38;;;;;;;14.10;10.35;;;;;;;;;;2073393;28;20185;-58
2020/12/20 06:06:40;;;;;;;10.82;9.82;;;;;;;;;;2081946;28;20188;-57
2020/12/20 06:07:43;;;;;;;12.05;10.85;;;;;;;;;;2081551;28;20483;-60
2020/12/20 06:08:48;;;;;;;11.13;9.98;;;;;;;;;;2076529;28;20260;-60
2020/12/20 06:09:55;;;;;;;11.52;10.40;;;;;;;;;;2073139;28;20205;-58
2020/12/20 06:11:01;;;;;;;10.55;9.55;;;;;;;;;;2072861;28;20197;-59
2020/12/20 06:12:02;;;;;;;11.13;10.10;;;;;;;;;;2074921;28;20213;-59
2020/12/20 06:13:07;;;;;;;13.40;11.23;;;;;;;;;;2072333;28;20180;-56
2020/12/20 06:14:08;;;;;;;12.50;10.52;;;;;;;;;;2073679;28;20280;-59
2020/12/20 06:15:11;;;;;;;11.60;10.38;;;;;;;;;;2069680;28;20184;-60
2020/12/20 06:16:13;;;;;;;11.10;10.07;;;;;;;;;;2072502;28;20185;-61
2020/12/20 06:17:14;;;;;;;12.43;11.02;;;;;;;;;;2068854;28;20168;-58
2020/12/20 06:18:15;;;;;;;11.77;10.57;;;;;;;;;;2065016;28;20165;-59
2020/12/20 06:19:20;;;;;;;12.23;11.03;;;;;;;;;;2072782;28;20673;-59
2020/12/20 06:20:27;;;;;;;11.77;10.57;;;;;;;;;;2079006;28;20195;-61
2020/12/20 06:21:34;;;;;;;12.70;10.60;;;;;;;;;;2079971;28;20214;-59